createdAt,value
2018-03-08T00:01:03.752Z,92985.31
2018-03-08T00:03:31.378Z,92988.47
2018-03-08T00:05:58.973Z,92985.91
2018-03-08T00:08:26.594Z,92991.03
2018-03-08T00:10:54.170Z,92986.20
2018-03-08T00:13:21.848Z,92995.47
2018-03-08T00:15:49.481Z,92989.92
2018-03-08T00:18:17.082Z,92983.73
2018-03-08T00:20:44.737Z,92986.50
2018-03-08T00:23:12.318Z,92990.55
2018-03-08T00:25:39.935Z,92987.41
2018-03-08T00:28:07.570Z,92979.69
2018-03-08T00:30:35.157Z,92986.00
2018-03-08T00:33:02.841Z,92975.95
2018-03-08T00:35:30.449Z,92979.59
2018-03-08T00:37:58.170Z,92982.26
2018-03-08T00:40:25.809Z,92981.17
2018-03-08T00:42:53.445Z,92986.41
2018-03-08T00:45:21.034Z,92985.41
2018-03-08T00:47:48.676Z,92983.52
2018-03-08T00:50:16.361Z,92984.59
2018-03-08T00:52:43.973Z,92988.54
2018-03-08T00:55:11.545Z,92983.91
2018-03-08T00:57:39.184Z,92992.19
2018-03-08T01:00:06.822Z,92996.95
2018-03-08T01:02:34.418Z,92991.63
2018-03-08T01:05:02.037Z,92993.20
2018-03-08T01:07:29.706Z,92993.30
2018-03-08T01:09:57.401Z,92996.75
2018-03-08T01:12:25.107Z,92999.14
2018-03-08T01:14:52.810Z,92992.63
2018-03-08T01:17:20.433Z,93001.70
2018-03-08T01:19:48.007Z,92995.47
2018-03-08T01:22:15.707Z,92994.61
2018-03-08T01:24:43.371Z,93000.90
2018-03-08T01:27:10.981Z,93012.14
2018-03-08T01:29:38.667Z,93003.37
2018-03-08T01:32:06.255Z,93006.63
2018-03-08T01:34:34.276Z,93001.80
2018-03-08T01:37:01.912Z,93006.61
2018-03-08T01:39:29.726Z,93006.12
2018-03-08T01:41:57.328Z,93008.51
2018-03-08T01:44:24.966Z,93007.81
2018-03-08T01:46:52.558Z,93011.56
2018-03-08T01:49:20.217Z,93010.68
2018-03-08T01:51:59.703Z,93010.08
2018-03-08T01:54:27.300Z,93020.23
2018-03-08T01:56:54.967Z,93016.38
2018-03-08T01:59:22.588Z,93016.88
2018-03-08T02:01:50.245Z,93017.88
2018-03-08T02:04:17.836Z,93020.42
2018-03-08T02:06:45.749Z,93022.89
2018-03-08T02:09:13.475Z,93028.80
2018-03-08T02:11:41.059Z,93034.52
2018-03-08T02:14:08.706Z,93039.55
2018-03-08T02:16:36.324Z,93034.23
2018-03-08T02:19:03.973Z,93038.17
2018-03-08T02:21:31.577Z,93043.41
2018-03-08T02:23:59.231Z,93040.84
2018-03-08T02:26:27.028Z,93050.11
2018-03-08T02:28:54.676Z,93049.13
2018-03-08T02:31:22.254Z,93055.23
2018-03-08T02:33:49.881Z,93051.95
2018-03-08T02:36:17.516Z,93059.17
2018-03-08T02:38:45.126Z,93060.06
2018-03-08T02:41:12.754Z,93063.72
2018-03-08T02:43:40.381Z,93064.31
2018-03-08T02:46:08.017Z,93063.91
2018-03-08T02:48:35.668Z,93066.18
2018-03-08T02:51:03.401Z,93064.39
2018-03-08T02:53:31.005Z,93065.57
2018-03-08T02:55:58.731Z,93067.15
2018-03-08T02:58:26.368Z,93066.56
2018-03-08T03:00:53.947Z,93074.84
2018-03-08T03:03:21.593Z,93068.16
2018-03-08T03:05:49.206Z,93074.77
2018-03-08T03:08:16.804Z,93074.14
2018-03-08T03:10:44.448Z,93070.02
2018-03-08T03:13:12.154Z,93078.48
2018-03-08T03:15:39.804Z,93084.23
2018-03-08T03:18:07.420Z,93081.05
2018-03-08T03:20:35.044Z,93081.05
2018-03-08T03:23:02.680Z,93080.27
2018-03-08T03:25:30.301Z,93081.35
2018-03-08T03:27:57.930Z,93078.60
2018-03-08T03:30:25.592Z,93079.59
2018-03-08T03:32:53.278Z,93088.64
2018-03-08T03:35:20.862Z,93096.91
2018-03-08T03:37:48.528Z,93093.86
2018-03-08T03:40:16.142Z,93100.94
2018-03-08T03:42:43.789Z,93102.94
2018-03-08T03:45:11.449Z,93110.02
2018-03-08T03:47:39.025Z,93108.24
2018-03-08T03:50:06.667Z,93107.57
2018-03-08T03:52:34.248Z,93118.31
2018-03-08T03:55:01.906Z,93115.86
2018-03-08T03:57:29.562Z,93107.87
2018-03-08T03:59:57.183Z,93123.52
2018-03-08T04:02:24.847Z,93125.10
2018-03-08T04:04:52.541Z,93124.72
2018-03-08T04:07:20.188Z,93125.20
2018-03-08T04:09:47.851Z,93127.46
2018-03-08T04:12:15.487Z,93134.27
2018-03-08T04:14:43.142Z,93133.78
2018-03-08T04:17:10.787Z,93135.44
2018-03-08T04:19:39.293Z,93137.73
2018-03-08T04:22:06.877Z,93138.30
2018-03-08T04:24:34.504Z,93142.63
2018-03-08T04:27:02.101Z,93143.74
2018-03-08T04:29:29.760Z,93147.08
2018-03-08T04:31:57.372Z,93151.59
2018-03-08T04:34:24.963Z,93158.30
2018-03-08T04:36:52.616Z,93155.75
2018-03-08T04:39:20.273Z,93161.76
2018-03-08T04:41:47.957Z,93163.55
2018-03-08T04:44:15.671Z,93172.13
2018-03-08T04:46:43.296Z,93174.27
2018-03-08T04:49:10.936Z,93180.37
2018-03-08T04:51:38.558Z,93179.06
2018-03-08T04:54:06.265Z,93177.58
2018-03-08T04:56:33.939Z,93174.73
2018-03-08T04:59:01.593Z,93170.29
2018-03-08T05:01:29.216Z,93182.31
2018-03-08T05:03:56.871Z,93181.05
2018-03-08T05:06:24.592Z,93181.34
2018-03-08T05:08:52.242Z,93181.61
2018-03-08T05:11:19.844Z,93181.61
2018-03-08T05:13:47.468Z,93181.80
2018-03-08T05:16:15.132Z,93187.63
2018-03-08T05:18:42.841Z,93193.98
2018-03-08T05:21:10.534Z,93192.08
2018-03-08T05:23:38.116Z,93202.27
2018-03-08T05:26:05.795Z,93191.62
2018-03-08T05:28:33.427Z,93204.36
2018-03-08T05:31:01.097Z,93201.67
2018-03-08T05:33:28.677Z,93204.78
2018-03-08T05:35:56.530Z,93205.59
2018-03-08T05:38:24.128Z,93206.09
2018-03-08T05:40:51.789Z,93208.70
2018-03-08T05:43:19.392Z,93214.73
2018-03-08T05:45:47.050Z,93211.39
2018-03-08T05:48:14.988Z,93222.61
2018-03-08T05:50:43.674Z,93227.63
2018-03-08T05:53:11.335Z,93237.52
2018-03-08T05:55:38.948Z,93242.10
2018-03-08T05:58:06.583Z,93238.73
2018-03-08T06:00:34.235Z,93251.27
2018-03-08T06:03:01.909Z,93249.28
2018-03-08T06:05:29.489Z,93251.55
2018-03-08T06:07:57.102Z,93254.91
2018-03-08T06:10:24.725Z,93253.92
2018-03-08T06:12:52.392Z,93259.23
2018-03-08T06:15:20.016Z,93255.22
2018-03-08T06:17:47.607Z,93256.95
2018-03-08T06:20:15.246Z,93254.34
2018-03-08T06:22:42.866Z,93252.06
2018-03-08T06:25:11.327Z,93253.66
2018-03-08T06:27:39.085Z,93248.83
2018-03-08T06:30:07.312Z,93255.06
2018-03-08T06:32:34.968Z,93266.37
2018-03-08T06:35:02.603Z,93266.97
2018-03-08T06:37:31.289Z,93270.53
2018-03-08T06:39:58.976Z,93274.39
2018-03-08T06:42:26.685Z,93279.52
2018-03-08T06:44:54.272Z,93288.48
2018-03-08T06:47:21.945Z,93287.88
2018-03-08T06:49:49.570Z,93287.19
2018-03-08T06:52:17.231Z,93292.11
2018-03-08T06:54:44.842Z,93297.14
2018-03-08T06:57:12.521Z,93294.81
2018-03-08T06:59:40.140Z,93292.52
2018-03-08T07:02:07.841Z,93297.54
2018-03-08T07:04:35.493Z,93294.28
2018-03-08T07:07:03.160Z,93288.53
2018-03-08T07:09:30.841Z,93297.97
2018-03-08T07:11:58.509Z,93306.98
2018-03-08T07:14:26.142Z,93305.83
2018-03-08T07:16:53.816Z,93308.42
2018-03-08T07:19:21.420Z,93313.69
2018-03-08T07:21:49.103Z,93310.73
2018-03-08T07:24:16.759Z,93310.92
2018-03-08T07:26:44.431Z,93308.55
2018-03-08T07:29:12.052Z,93313.28
2018-03-08T07:31:39.760Z,93312.38
2018-03-08T07:34:07.442Z,93323.11
2018-03-08T07:36:35.108Z,93323.66
2018-03-08T07:39:02.929Z,93326.88
2018-03-08T07:41:30.570Z,93331.84
2018-03-08T07:43:59.164Z,93336.28
2018-03-08T07:46:26.834Z,93336.30
2018-03-08T07:48:54.541Z,93338.27
2018-03-08T07:51:22.170Z,93342.89
2018-03-08T07:53:49.792Z,93341.70
2018-03-08T07:56:17.444Z,93339.42
2018-03-08T07:58:45.118Z,93344.67
2018-03-08T08:01:12.797Z,93343.93
2018-03-08T08:03:40.490Z,93336.68
2018-03-08T08:06:20.974Z,93337.55
2018-03-08T08:09:00.286Z,93334.58
2018-03-08T08:11:27.947Z,93328.80
2018-03-08T08:13:55.567Z,93328.12
2018-03-08T08:16:23.240Z,93331.21
2018-03-08T08:18:50.893Z,93333.28
2018-03-08T08:21:18.544Z,93326.24
2018-03-08T08:23:46.256Z,93322.05
2018-03-08T08:26:13.918Z,93329.89
2018-03-08T08:28:41.509Z,93333.94
2018-03-08T08:31:09.185Z,93329.38
2018-03-08T08:33:36.816Z,93324.81
2018-03-08T08:36:04.458Z,93322.22
2018-03-08T08:38:32.099Z,93326.67
2018-03-08T08:40:59.736Z,93326.39
2018-03-08T08:43:27.375Z,93330.49
2018-03-08T08:45:55.044Z,93328.20
2018-03-08T08:48:22.644Z,93329.81
2018-03-08T08:50:51.284Z,93338.97
2018-03-08T08:53:18.887Z,93344.70
2018-03-08T08:55:46.520Z,93340.55
2018-03-08T08:58:14.172Z,93339.09
2018-03-08T09:00:41.872Z,93342.75
2018-03-08T09:03:09.603Z,93345.06
2018-03-08T09:05:37.296Z,93341.17
2018-03-08T09:08:04.983Z,93351.56
2018-03-08T09:10:32.637Z,93346.02
2018-03-08T09:13:00.236Z,93345.84
2018-03-08T09:15:27.927Z,93343.53
2018-03-08T09:17:55.568Z,93343.12
2018-03-08T09:20:23.188Z,93342.09
2018-03-08T09:22:50.846Z,93335.63
2018-03-08T09:25:18.460Z,93334.08
2018-03-08T09:27:46.120Z,93326.84
2018-03-08T09:30:13.746Z,93331.33
2018-03-08T09:32:41.420Z,93337.98
2018-03-08T09:35:09.013Z,93330.89
2018-03-08T09:37:36.672Z,93324.05
2018-03-08T09:40:04.285Z,93324.84
2018-03-08T09:42:31.915Z,93335.01
2018-03-08T09:44:59.552Z,93333.89
2018-03-08T09:47:27.193Z,93338.09
2018-03-08T09:49:54.890Z,93334.67
2018-03-08T09:52:22.524Z,93333.48
2018-03-08T09:54:50.162Z,93332.83
2018-03-08T09:57:17.759Z,93342.00
2018-03-08T09:59:45.410Z,93342.78
2018-03-08T10:02:13.052Z,93327.13
2018-03-08T10:04:40.699Z,93315.33
2018-03-08T10:07:08.317Z,93325.06
2018-03-08T10:09:36.017Z,93324.13
2018-03-08T10:12:03.652Z,93321.06
2018-03-08T10:14:31.307Z,93324.52
2018-03-08T10:16:59.714Z,93314.47
2018-03-08T10:19:27.384Z,93319.87
2018-03-08T10:21:55.043Z,93311.63
2018-03-08T10:24:22.745Z,93307.01
2018-03-08T10:26:50.513Z,93308.93
2018-03-08T10:29:18.155Z,93308.47
2018-03-08T10:31:45.835Z,93307.13
2018-03-08T10:34:13.485Z,93311.09
2018-03-08T10:36:41.093Z,93315.38
2018-03-08T10:44:04.677Z,93299.22
2018-03-08T10:46:32.292Z,93295.17
2018-03-08T10:51:27.564Z,93295.92
2018-03-08T10:53:55.206Z,93302.10
2018-03-08T10:56:23.175Z,93293.83
2018-03-08T10:58:50.752Z,93295.11
2018-03-08T11:01:23.969Z,93295.61
2018-03-08T11:03:55.534Z,93302.73
2018-03-08T11:06:29.093Z,93304.45
2018-03-08T11:08:56.758Z,93312.70
2018-03-08T11:11:24.447Z,93301.20
2018-03-08T11:13:52.380Z,93317.86
2018-03-08T11:16:20.036Z,93315.38
2018-03-08T11:18:47.624Z,93310.11
2018-03-08T11:21:15.289Z,93314.84
2018-03-08T11:23:42.906Z,93313.09
2018-03-08T11:26:10.537Z,93312.84
2018-03-08T11:28:38.576Z,93312.50
2018-03-08T11:31:06.442Z,93300.85
2018-03-08T11:33:34.086Z,93309.13
2018-03-08T11:36:01.750Z,93300.89
2018-03-08T11:38:29.387Z,93308.59
2018-03-08T11:40:56.983Z,93312.67
2018-03-08T11:43:24.696Z,93303.52
2018-03-08T11:45:53.308Z,93300.29
2018-03-08T11:48:20.998Z,93304.70
2018-03-08T11:50:48.632Z,93298.50
2018-03-08T11:53:16.275Z,93303.89
2018-03-08T11:55:44.077Z,93298.77
2018-03-08T11:58:12.160Z,93303.47
2018-03-08T12:00:39.807Z,93297.72
2018-03-08T12:03:07.484Z,93294.90
2018-03-08T12:05:35.322Z,93297.78
2018-03-08T12:08:03.535Z,93292.76
2018-03-08T12:10:31.496Z,93287.41
2018-03-08T12:12:59.130Z,93283.87
2018-03-08T12:15:26.926Z,93282.74
2018-03-08T12:17:54.617Z,93290.05
2018-03-08T12:20:22.349Z,93294.94
2018-03-08T12:22:50.012Z,93289.52
2018-03-08T12:25:17.864Z,93291.33
2018-03-08T12:27:45.634Z,93287.11
2018-03-08T12:30:13.390Z,93298.63
2018-03-08T12:32:41.173Z,93291.67
2018-03-08T12:35:08.923Z,93288.09
2018-03-08T12:37:36.654Z,93289.47
2018-03-08T12:40:07.356Z,93287.27
2018-03-08T12:42:35.579Z,93284.80
2018-03-08T12:45:03.575Z,93289.66
2018-03-08T12:47:31.653Z,93278.98
2018-03-08T12:49:59.563Z,93282.47
2018-03-08T12:52:27.171Z,93277.45
2018-03-08T12:54:54.999Z,93272.83
2018-03-08T12:57:22.604Z,93281.08
2018-03-08T12:59:50.322Z,93277.42
2018-03-08T13:02:18.652Z,93271.91
2018-03-08T13:04:46.517Z,93267.12
2018-03-08T13:07:14.488Z,93267.02
2018-03-08T13:09:42.240Z,93260.95
2018-03-08T13:12:09.877Z,93263.45
2018-03-08T13:14:38.075Z,93253.34
2018-03-08T13:17:05.736Z,93257.98
2018-03-08T13:19:33.361Z,93257.89
2018-03-08T13:22:01.010Z,93256.28
2018-03-08T13:24:28.593Z,93253.34
2018-03-08T13:26:56.249Z,93262.48
2018-03-08T13:29:23.915Z,93262.70
2018-03-08T13:31:51.532Z,93266.92
2018-03-08T13:34:19.189Z,93255.81
2018-03-08T13:36:46.889Z,93257.98
2018-03-08T13:39:14.565Z,93245.63
2018-03-08T13:41:42.225Z,93246.87
2018-03-08T13:44:09.894Z,93245.05
2018-03-08T13:46:37.557Z,93242.42
2018-03-08T13:49:16.849Z,93239.78
2018-03-08T13:51:44.696Z,93238.44
2018-03-08T13:54:12.287Z,93235.72
2018-03-08T13:56:39.955Z,93232.81
2018-03-08T13:59:07.560Z,93233.27
2018-03-08T14:01:36.042Z,93238.27
2018-03-08T14:04:03.816Z,93233.66
2018-03-08T14:06:31.458Z,93231.94
2018-03-08T14:08:59.167Z,93229.74
2018-03-08T14:11:26.854Z,93228.36
2018-03-08T14:13:54.565Z,93222.89
2018-03-08T14:16:22.253Z,93219.95
2018-03-08T14:18:50.097Z,93211.73
2018-03-08T14:21:18.031Z,93215.95
2018-03-08T14:23:45.945Z,93217.25
2018-03-08T14:26:13.873Z,93217.02
2018-03-08T14:28:41.669Z,93223.28
2018-03-08T14:31:09.278Z,93218.10
2018-03-08T14:33:36.990Z,93213.55
2018-03-08T14:36:04.864Z,93209.97
2018-03-08T14:38:32.928Z,93212.25
2018-03-08T14:41:01.016Z,93206.79
2018-03-08T14:43:30.345Z,93203.22
2018-03-08T14:45:58.212Z,93205.66
2018-03-08T14:48:26.258Z,93206.45
2018-03-08T14:50:55.212Z,93199.71
2018-03-08T14:53:23.217Z,93198.48
2018-03-08T14:55:51.136Z,93192.34
2018-03-08T14:58:19.194Z,93194.59
2018-03-08T15:00:47.033Z,93193.78
2018-03-08T15:03:15.916Z,93197.95
2018-03-08T15:05:43.784Z,93194.53
2018-03-08T15:08:11.656Z,93194.70
2018-03-08T15:10:39.724Z,93196.75
2018-03-08T15:13:08.004Z,93200.22
2018-03-08T15:15:36.135Z,93206.73
2018-03-08T15:18:04.012Z,93198.12
2018-03-08T15:20:32.013Z,93201.23
2018-03-08T15:23:00.383Z,93193.89
2018-03-08T15:25:28.555Z,93194.78
2018-03-08T15:27:56.659Z,93195.13
2018-03-08T15:30:24.507Z,93194.84
2018-03-08T15:32:52.511Z,93187.60
2018-03-08T15:35:20.626Z,93190.42
2018-03-08T15:37:49.439Z,93187.47
2018-03-08T15:40:18.359Z,93185.36
2018-03-08T15:42:47.179Z,93184.10
2018-03-08T15:45:15.904Z,93194.34
2018-03-08T15:47:44.804Z,93188.67
2018-03-08T15:50:12.674Z,93188.59
2018-03-08T15:52:40.422Z,93186.43
2018-03-08T15:55:08.283Z,93185.91
2018-03-08T15:57:36.729Z,93189.11
2018-03-08T16:00:04.699Z,93191.19
2018-03-08T16:02:34.353Z,93187.03
2018-03-08T16:05:02.378Z,93190.41
2018-03-08T16:10:38.203Z,93201.02
2018-03-08T16:13:05.876Z,93200.63
2018-03-08T16:15:33.560Z,93199.25
2018-03-08T16:18:01.757Z,93198.69
2018-03-08T16:20:29.863Z,93206.83
2018-03-08T16:22:57.506Z,93202.51
2018-03-08T16:25:25.295Z,93208.13
2018-03-08T16:27:55.480Z,93205.78
2018-03-08T16:30:24.019Z,93203.48
2018-03-08T16:32:51.768Z,93207.09
2018-03-08T16:35:19.633Z,93205.44
2018-03-08T16:37:47.715Z,93205.30
2018-03-08T16:40:15.747Z,93209.68
2018-03-08T16:42:43.739Z,93208.36
2018-03-08T16:45:11.819Z,93213.89
2018-03-08T16:47:39.789Z,93223.36
2018-03-08T16:50:07.761Z,93218.50
2018-03-08T16:52:35.631Z,93212.61
2018-03-08T16:55:03.669Z,93220.59
2018-03-08T16:57:31.315Z,93218.42
2018-03-08T16:59:59.292Z,93215.97
2018-03-08T17:02:27.403Z,93218.97
2018-03-08T17:04:55.413Z,93220.05
2018-03-08T17:07:23.611Z,93225.55
2018-03-08T17:09:51.474Z,93234.04
2018-03-08T17:12:19.588Z,93237.34
2018-03-08T17:14:47.686Z,93243.44
2018-03-08T17:17:16.350Z,93245.53
2018-03-08T17:19:44.622Z,93247.80
2018-03-08T17:22:12.797Z,93245.30
2018-03-08T17:24:40.871Z,93243.48
2018-03-08T17:27:10.890Z,93243.13
2018-03-08T17:29:39.676Z,93247.59
2018-03-08T17:32:08.995Z,93248.00
2018-03-08T17:34:36.822Z,93247.80
2018-03-08T17:37:04.961Z,93256.82
2018-03-08T17:39:33.722Z,93247.11
2018-03-08T17:42:01.689Z,93254.43
2018-03-08T17:44:30.341Z,93257.98
2018-03-08T17:46:58.172Z,93258.86
2018-03-08T17:49:26.161Z,93258.13
2018-03-08T17:51:54.025Z,93264.12
2018-03-08T17:54:22.178Z,93255.03
2018-03-08T17:56:50.138Z,93256.07
2018-03-08T17:59:18.911Z,93262.70
2018-03-08T18:01:46.947Z,93270.32
2018-03-08T18:04:14.546Z,93271.55
2018-03-08T18:06:42.308Z,93268.19
2018-03-08T18:09:10.210Z,93275.79
2018-03-08T18:11:38.126Z,93274.61
2018-03-08T18:14:11.475Z,93273.67
2018-03-08T18:16:45.153Z,93273.58
2018-03-08T18:19:13.179Z,93283.41
2018-03-08T18:21:41.642Z,93279.09
2018-03-08T18:24:10.158Z,93290.08
2018-03-08T18:26:37.911Z,93290.38
2018-03-08T18:29:06.669Z,93290.78
2018-03-08T18:31:34.396Z,93290.47
2018-03-08T18:34:02.088Z,93298.17
2018-03-08T18:36:30.317Z,93296.79
2018-03-08T18:38:58.211Z,93296.80
2018-03-08T18:41:25.954Z,93299.86
2018-03-08T18:43:53.917Z,93290.59
2018-03-08T18:46:21.606Z,93299.08
2018-03-08T18:48:49.903Z,93303.32
2018-03-08T18:51:17.826Z,93302.91
2018-03-08T18:53:45.742Z,93311.89
2018-03-08T18:56:13.456Z,93310.69
2018-03-08T18:58:41.543Z,93307.54
2018-03-08T19:01:09.239Z,93316.69
2018-03-08T19:03:37.133Z,93317.50
2018-03-08T19:06:05.232Z,93328.27
2018-03-08T19:08:33.268Z,93326.56
2018-03-08T19:11:01.293Z,93333.56
2018-03-08T19:13:30.292Z,93326.39
2018-03-08T19:15:58.138Z,93332.03
2018-03-08T19:18:26.206Z,93335.42
2018-03-08T19:20:54.279Z,93333.14
2018-03-08T19:23:22.629Z,93343.87
2018-03-08T19:25:50.623Z,93344.36
2018-03-08T19:28:18.702Z,93343.41
2018-03-08T19:30:46.521Z,93351.30
2018-03-08T19:33:14.857Z,93345.39
2018-03-08T19:35:42.697Z,93348.16
2018-03-08T19:38:10.745Z,93353.83
2018-03-08T19:40:38.645Z,93354.70
2018-03-08T19:43:06.505Z,93353.73
2018-03-08T19:45:35.173Z,93353.07
2018-03-08T19:48:03.321Z,93361.98
2018-03-08T19:50:31.386Z,93360.80
2018-03-08T19:52:59.424Z,93353.67
2018-03-08T19:55:27.297Z,93356.80
2018-03-08T19:57:55.007Z,93369.78
2018-03-08T20:00:22.639Z,93370.79
2018-03-08T20:02:51.384Z,93372.22
2018-03-08T20:05:19.109Z,93374.55
2018-03-08T20:07:46.768Z,93378.55
2018-03-08T20:10:14.439Z,93378.80
2018-03-08T20:12:42.095Z,93381.91
2018-03-08T20:15:09.738Z,93381.77
2018-03-08T20:17:37.478Z,93385.89
2018-03-08T20:20:05.353Z,93386.67
2018-03-08T20:22:33.055Z,93386.78
2018-03-08T20:25:01.740Z,93395.24
2018-03-08T20:27:29.393Z,93394.81
2018-03-08T20:29:57.190Z,93398.42
2018-03-08T20:32:24.823Z,93404.58
2018-03-08T20:34:53.445Z,93401.64
2018-03-08T20:37:21.086Z,93408.72
2018-03-08T20:39:48.710Z,93408.69
2018-03-08T20:42:16.410Z,93412.94
2018-03-08T20:44:44.079Z,93417.66
2018-03-08T20:47:12.218Z,93411.91
2018-03-08T20:49:39.860Z,93417.69
2018-03-08T20:52:07.545Z,93413.89
2018-03-08T20:54:35.197Z,93420.91
2018-03-08T20:57:03.773Z,93425.23
2018-03-08T20:59:31.381Z,93429.45
2018-03-08T21:01:59.083Z,93429.63
2018-03-08T21:04:26.737Z,93426.30
2018-03-08T21:06:54.392Z,93427.80
2018-03-08T21:09:21.988Z,93423.80
2018-03-08T21:11:49.670Z,93429.77
2018-03-08T21:14:17.278Z,93430.82
2018-03-08T21:16:44.948Z,93434.36
2018-03-08T21:19:12.663Z,93430.30
2018-03-08T21:21:42.430Z,93422.45
2018-03-08T21:24:10.290Z,93429.10
2018-03-08T21:26:38.774Z,93430.38
2018-03-08T21:29:06.527Z,93432.90
2018-03-08T21:31:34.493Z,93428.97
2018-03-08T21:34:02.443Z,93430.17
2018-03-08T21:36:30.025Z,93438.06
2018-03-08T21:38:57.728Z,93436.87
2018-03-08T21:41:25.404Z,93435.20
2018-03-08T21:43:53.058Z,93435.14
2018-03-08T21:46:20.784Z,93438.02
2018-03-08T21:48:49.111Z,93443.79
2018-03-08T21:51:16.745Z,93444.39
2018-03-08T21:53:45.460Z,93441.77
2018-03-08T21:56:13.276Z,93447.58
2018-03-08T21:58:41.636Z,93447.01
2018-03-08T22:01:09.845Z,93445.93
2018-03-08T22:03:38.137Z,93443.95
2018-03-08T22:06:06.501Z,93447.88
2018-03-08T22:08:34.668Z,93448.80
2018-03-08T22:11:02.951Z,93445.73
2018-03-08T22:13:30.953Z,93445.34
2018-03-08T22:15:59.123Z,93444.47
2018-03-08T22:18:27.189Z,93441.39
2018-03-08T22:20:55.613Z,93444.80
2018-03-08T22:23:23.686Z,93450.47
2018-03-08T22:25:52.361Z,93445.34
2018-03-08T22:28:20.616Z,93447.61
2018-03-08T22:30:48.826Z,93450.75
2018-03-08T22:33:17.059Z,93446.92
2018-03-08T22:35:45.218Z,93450.62
2018-03-08T22:38:13.523Z,93454.07
2018-03-08T22:40:41.331Z,93451.09
2018-03-08T22:43:09.015Z,93453.24
2018-03-08T22:45:36.645Z,93457.73
2018-03-08T22:48:04.268Z,93456.83
2018-03-08T22:50:31.943Z,93464.62
2018-03-08T22:52:59.550Z,93464.64
2018-03-08T22:55:27.155Z,93467.13
2018-03-08T22:57:54.863Z,93468.89
2018-03-08T23:00:22.564Z,93473.05
2018-03-08T23:02:50.220Z,93478.66
2018-03-08T23:05:17.895Z,93476.63
2018-03-08T23:07:45.539Z,93487.03
2018-03-08T23:10:13.294Z,93489.29
2018-03-08T23:12:41.186Z,93488.87
2018-03-08T23:15:08.807Z,93488.38
2018-03-08T23:17:36.454Z,93493.44
2018-03-08T23:20:04.081Z,93492.58
2018-03-08T23:22:31.665Z,93497.55
2018-03-08T23:24:59.315Z,93505.21
2018-03-08T23:27:26.984Z,93500.78
2018-03-08T23:29:54.589Z,93505.64
2018-03-08T23:32:22.249Z,93503.11
2018-03-08T23:34:50.114Z,93507.68
2018-03-08T23:37:17.760Z,93504.27
2018-03-08T23:39:46.046Z,93507.68
2018-03-08T23:42:14.736Z,93513.55
2018-03-08T23:44:42.406Z,93504.27
2018-03-08T23:47:10.045Z,93512.08
2018-03-08T23:49:37.697Z,93527.06
2018-03-08T23:52:05.292Z,93530.92
2018-03-08T23:54:33.800Z,93528.50
2018-03-08T23:57:01.386Z,93531.16
2018-03-08T23:59:29.193Z,93535.59
